sensor_id;sensor_type;location;lat;lon;timestamp;pressure;altitude;pressure_sealevel;temperature;humidity
19520;BME280;9904;52.246;20.898;2023-11-21T00:02:26;99435.88;;;-1.30;100.00
19520;BME280;9904;52.246;20.898;2023-11-21T00:04:54;99447.28;;;-1.42;100.00
19520;BME280;9904;52.246;20.898;2023-11-21T00:07:20;99456.44;;;-1.33;100.00
19520;BME280;9904;52.246;20.898;2023-11-21T00:09:48;99456.81;;;-1.25;100.00
19520;BME280;9904;52.246;20.898;2023-11-21T00:12:15;99467.72;;;-1.30;100.00
19520;BME280;9904;52.246;20.898;2023-11-21T00:14:41;99468.22;;;-1.37;100.00
19520;BME280;9904;52.246;20.898;2023-11-21T00:17:08;99470.78;;;-1.36;100.00
19520;BME280;9904;52.246;20.898;2023-11-21T00:19:35;99473.25;;;-1.33;100.00
19520;BME280;9904;52.246;20.898;2023-11-21T00:22:02;99475.25;;;-1.36;100.00
19520;BME280;9904;52.246;20.898;2023-11-21T00:24:29;99481.88;;;-1.44;100.00
19520;BME280;9904;52.246;20.898;2023-11-21T00:26:56;99476.38;;;-1.40;100.00
19520;BME280;9904;52.246;20.898;2023-11-21T00:29:22;99482.63;;;-1.41;100.00
19520;BME280;9904;52.246;20.898;2023-11-21T00:31:50;99484.31;;;-1.55;100.00
19520;BME280;9904;52.246;20.898;2023-11-21T00:34:17;99475.81;;;-1.46;100.00
19520;BME280;9904;52.246;20.898;2023-11-21T00:36:44;99482.16;;;-1.48;100.00
19520;BME280;9904;52.246;20.898;2023-11-21T00:39:10;99482.22;;;-1.50;100.00
19520;BME280;9904;52.246;20.898;2023-11-21T00:41:38;99477.22;;;-1.54;100.00
19520;BME280;9904;52.246;20.898;2023-11-21T00:44:05;99482.72;;;-1.43;100.00
19520;BME280;9904;52.246;20.898;2023-11-21T00:46:33;99488.81;;;-1.41;100.00
19520;BME280;9904;52.246;20.898;2023-11-21T00:48:59;99488.31;;;-1.48;100.00
19520;BME280;9904;52.246;20.898;2023-11-21T00:51:26;99484.88;;;-1.50;100.00
19520;BME280;9904;52.246;20.898;2023-11-21T00:53:53;99493.78;;;-1.51;100.00
19520;BME280;9904;52.246;20.898;2023-11-21T00:56:19;99491.81;;;-1.47;100.00
19520;BME280;9904;52.246;20.898;2023-11-21T00:58:46;99500.53;;;-1.60;100.00
19520;BME280;9904;52.246;20.898;2023-11-21T01:01:16;99495.13;;;-1.58;100.00
19520;BME280;9904;52.246;20.898;2023-11-21T01:03:43;99490.56;;;-1.56;100.00
19520;BME280;9904;52.246;20.898;2023-11-21T01:06:10;99496.94;;;-1.58;100.00
19520;BME280;9904;52.246;20.898;2023-11-21T01:08:40;99501.19;;;-1.70;100.00
19520;BME280;9904;52.246;20.898;2023-11-21T01:11:06;99505.94;;;-1.61;100.00
19520;BME280;9904;52.246;20.898;2023-11-21T01:13:34;99493.38;;;-1.73;100.00
19520;BME280;9904;52.246;20.898;2023-11-21T01:16:02;99511.63;;;-1.67;100.00
19520;BME280;9904;52.246;20.898;2023-11-21T01:18:30;99507.06;;;-1.65;100.00
19520;BME280;9904;52.246;20.898;2023-11-21T01:20:56;99512.72;;;-1.71;100.00
19520;BME280;9904;52.246;20.898;2023-11-21T01:23:24;99511.34;;;-1.63;100.00
19520;BME280;9904;52.246;20.898;2023-11-21T01:25:52;99510.34;;;-1.76;100.00
19520;BME280;9904;52.246;20.898;2023-11-21T01:28:19;99513.09;;;-1.78;100.00
19520;BME280;9904;52.246;20.898;2023-11-21T01:31:10;99505.16;;;-1.78;100.00
19520;BME280;9904;52.246;20.898;2023-11-21T01:33:39;99514.16;;;-1.80;100.00
19520;BME280;9904;52.246;20.898;2023-11-21T01:36:06;99519.34;;;-1.79;100.00
19520;BME280;9904;52.246;20.898;2023-11-21T01:38:33;99522.22;;;-1.82;100.00
19520;BME280;9904;52.246;20.898;2023-11-21T01:40:59;99520.28;;;-1.80;100.00
19520;BME280;9904;52.246;20.898;2023-11-21T01:43:27;99514.53;;;-1.86;100.00
19520;BME280;9904;52.246;20.898;2023-11-21T01:45:54;99510.47;;;-1.78;100.00
19520;BME280;9904;52.246;20.898;2023-11-21T01:48:24;99508.16;;;-1.84;100.00
19520;BME280;9904;52.246;20.898;2023-11-21T01:50:51;99521.59;;;-1.87;100.00
19520;BME280;9904;52.246;20.898;2023-11-21T01:53:18;99523.25;;;-1.70;100.00
19520;BME280;9904;52.246;20.898;2023-11-21T01:55:46;99526.19;;;-1.74;100.00
19520;BME280;9904;52.246;20.898;2023-11-21T01:58:13;99527.81;;;-1.72;100.00
19520;BME280;9904;52.246;20.898;2023-11-21T02:00:40;99517.28;;;-1.73;100.00
19520;BME280;9904;52.246;20.898;2023-11-21T02:03:06;99523.81;;;-1.79;100.00
19520;BME280;9904;52.246;20.898;2023-11-21T02:05:33;99517.84;;;-1.83;100.00
19520;BME280;9904;52.246;20.898;2023-11-21T02:08:00;99518.25;;;-1.74;100.00
19520;BME280;9904;52.246;20.898;2023-11-21T02:10:31;99514.25;;;-1.82;100.00
19520;BME280;9904;52.246;20.898;2023-11-21T02:12:59;99516.13;;;-1.84;100.00
19520;BME280;9904;52.246;20.898;2023-11-21T02:15:28;99522.78;;;-1.77;100.00
19520;BME280;9904;52.246;20.898;2023-11-21T02:18:22;99529.41;;;-2.00;100.00
19520;BME280;9904;52.246;20.898;2023-11-21T02:20:50;99528.13;;;-1.93;100.00
19520;BME280;9904;52.246;20.898;2023-11-21T02:23:17;99530.50;;;-1.88;100.00
19520;BME280;9904;52.246;20.898;2023-11-21T02:25:45;99534.47;;;-1.95;100.00
19520;BME280;9904;52.246;20.898;2023-11-21T02:28:15;99537.47;;;-2.01;100.00
19520;BME280;9904;52.246;20.898;2023-11-21T02:30:55;99537.31;;;-1.98;100.00
19520;BME280;9904;52.246;20.898;2023-11-21T02:33:34;99536.44;;;-1.99;100.00
19520;BME280;9904;52.246;20.898;2023-11-21T02:36:01;99538.00;;;-1.95;100.00
19520;BME280;9904;52.246;20.898;2023-11-21T02:38:28;99536.00;;;-1.91;100.00
19520;BME280;9904;52.246;20.898;2023-11-21T02:41:00;99538.81;;;-1.94;100.00
19520;BME280;9904;52.246;20.898;2023-11-21T02:43:35;99533.25;;;-1.89;100.00
19520;BME280;9904;52.246;20.898;2023-11-21T02:46:05;99538.06;;;-1.96;100.00
19520;BME280;9904;52.246;20.898;2023-11-21T02:48:32;99546.53;;;-1.89;100.00
19520;BME280;9904;52.246;20.898;2023-11-21T02:50:59;99543.69;;;-1.86;100.00
19520;BME280;9904;52.246;20.898;2023-11-21T02:53:49;99547.47;;;-1.91;100.00
19520;BME280;9904;52.246;20.898;2023-11-21T02:56:17;99549.03;;;-2.02;100.00
19520;BME280;9904;52.246;20.898;2023-11-21T02:58:44;99548.88;;;-1.99;100.00
19520;BME280;9904;52.246;20.898;2023-11-21T03:01:11;99552.00;;;-1.93;100.00
19520;BME280;9904;52.246;20.898;2023-11-21T03:03:38;99551.31;;;-1.96;100.00
19520;BME280;9904;52.246;20.898;2023-11-21T03:06:06;99540.41;;;-2.06;100.00
19520;BME280;9904;52.246;20.898;2023-11-21T03:08:33;99544.41;;;-1.99;100.00
19520;BME280;9904;52.246;20.898;2023-11-21T03:11:09;99546.22;;;-1.99;100.00
19520;BME280;9904;52.246;20.898;2023-11-21T03:13:59;99553.22;;;-1.98;100.00
19520;BME280;9904;52.246;20.898;2023-11-21T03:16:50;99550.94;;;-2.04;100.00
19520;BME280;9904;52.246;20.898;2023-11-21T03:19:41;99552.19;;;-1.96;100.00
19520;BME280;9904;52.246;20.898;2023-11-21T03:22:09;99553.63;;;-1.90;100.00
19520;BME280;9904;52.246;20.898;2023-11-21T03:24:36;99545.81;;;-2.08;100.00
19520;BME280;9904;52.246;20.898;2023-11-21T03:27:04;99558.69;;;-2.01;100.00
19520;BME280;9904;52.246;20.898;2023-11-21T03:29:31;99563.31;;;-2.05;100.00
19520;BME280;9904;52.246;20.898;2023-11-21T03:31:57;99564.53;;;-2.11;100.00
19520;BME280;9904;52.246;20.898;2023-11-21T03:34:28;99557.66;;;-1.99;100.00
19520;BME280;9904;52.246;20.898;2023-11-21T03:36:55;99559.22;;;-1.95;100.00
19520;BME280;9904;52.246;20.898;2023-11-21T03:39:22;99557.75;;;-2.00;100.00
19520;BME280;9904;52.246;20.898;2023-11-21T03:41:49;99556.81;;;-1.99;100.00
19520;BME280;9904;52.246;20.898;2023-11-21T03:44:42;99564.25;;;-2.06;100.00
19520;BME280;9904;52.246;20.898;2023-11-21T03:47:10;99568.16;;;-2.12;100.00
19520;BME280;9904;52.246;20.898;2023-11-21T03:49:37;99561.25;;;-2.00;100.00
19520;BME280;9904;52.246;20.898;2023-11-21T03:52:04;99573.56;;;-1.99;100.00
19520;BME280;9904;52.246;20.898;2023-11-21T03:54:31;99583.50;;;-2.02;100.00
19520;BME280;9904;52.246;20.898;2023-11-21T03:56:58;99590.19;;;-2.11;100.00
19520;BME280;9904;52.246;20.898;2023-11-21T03:59:24;99594.47;;;-2.09;100.00
19520;BME280;9904;52.246;20.898;2023-11-21T04:01:51;99599.19;;;-2.14;100.00
19520;BME280;9904;52.246;20.898;2023-11-21T04:04:17;99597.47;;;-2.15;100.00
19520;BME280;9904;52.246;20.898;2023-11-21T04:07:08;99601.03;;;-2.00;100.00
19520;BME280;9904;52.246;20.898;2023-11-21T04:09:35;99596.19;;;-2.08;100.00
19520;BME280;9904;52.246;20.898;2023-11-21T04:12:03;99599.41;;;-2.02;100.00
19520;BME280;9904;52.246;20.898;2023-11-21T04:14:29;99595.34;;;-2.08;100.00
19520;BME280;9904;52.246;20.898;2023-11-21T04:17:20;99600.56;;;-2.07;100.00
19520;BME280;9904;52.246;20.898;2023-11-21T04:19:50;99596.69;;;-2.17;100.00
19520;BME280;9904;52.246;20.898;2023-11-21T04:22:17;99602.69;;;-2.13;100.00
19520;BME280;9904;52.246;20.898;2023-11-21T04:24:44;99596.63;;;-2.15;100.00
19520;BME280;9904;52.246;20.898;2023-11-21T04:27:10;99605.53;;;-2.16;100.00
19520;BME280;9904;52.246;20.898;2023-11-21T04:29:37;99605.53;;;-2.16;100.00
19520;BME280;9904;52.246;20.898;2023-11-21T04:32:06;99616.97;;;-2.16;100.00
19520;BME280;9904;52.246;20.898;2023-11-21T04:34:33;99612.88;;;-2.21;100.00
19520;BME280;9904;52.246;20.898;2023-11-21T04:37:01;99615.44;;;-2.20;100.00
19520;BME280;9904;52.246;20.898;2023-11-21T04:39:27;99615.09;;;-2.30;100.00
19520;BME280;9904;52.246;20.898;2023-11-21T04:41:57;99629.41;;;-2.16;100.00
19520;BME280;9904;52.246;20.898;2023-11-21T04:44:24;99625.50;;;-2.11;100.00
19520;BME280;9904;52.246;20.898;2023-11-21T04:46:50;99631.09;;;-2.15;100.00
19520;BME280;9904;52.246;20.898;2023-11-21T04:49:26;99627.06;;;-2.23;100.00
19520;BME280;9904;52.246;20.898;2023-11-21T04:51:53;99626.91;;;-2.19;100.00
19520;BME280;9904;52.246;20.898;2023-11-21T04:54:20;99624.84;;;-2.14;100.00
19520;BME280;9904;52.246;20.898;2023-11-21T04:56:50;99626.75;;;-2.16;100.00
19520;BME280;9904;52.246;20.898;2023-11-21T04:59:17;99639.75;;;-2.12;100.00
19520;BME280;9904;52.246;20.898;2023-11-21T05:01:44;99635.09;;;-2.24;100.00
19520;BME280;9904;52.246;20.898;2023-11-21T05:04:12;99628.78;;;-2.21;100.00
19520;BME280;9904;52.246;20.898;2023-11-21T05:06:39;99638.28;;;-2.17;100.00
19520;BME280;9904;52.246;20.898;2023-11-21T05:09:07;99626.03;;;-2.04;100.00
19520;BME280;9904;52.246;20.898;2023-11-21T05:12:01;99645.88;;;-2.11;100.00
19520;BME280;9904;52.246;20.898;2023-11-21T05:14:30;99649.03;;;-2.20;100.00
19520;BME280;9904;52.246;20.898;2023-11-21T05:16:56;99648.88;;;-2.17;100.00
19520;BME280;9904;52.246;20.898;2023-11-21T05:19:27;99646.31;;;-2.19;100.00
19520;BME280;9904;52.246;20.898;2023-11-21T05:21:54;99651.50;;;-2.33;100.00
19520;BME280;9904;52.246;20.898;2023-11-21T05:24:21;99655.38;;;-2.23;100.00
19520;BME280;9904;52.246;20.898;2023-11-21T05:26:48;99661.63;;;-2.24;100.00
19520;BME280;9904;52.246;20.898;2023-11-21T05:29:14;99666.59;;;-2.34;100.00
19520;BME280;9904;52.246;20.898;2023-11-21T05:31:41;99664.53;;;-2.29;100.00
19520;BME280;9904;52.246;20.898;2023-11-21T05:34:10;99667.34;;;-2.32;100.00
19520;BME280;9904;52.246;20.898;2023-11-21T05:36:36;99674.19;;;-2.28;100.00
19520;BME280;9904;52.246;20.898;2023-11-21T05:39:07;99675.81;;;-2.25;100.00
19520;BME280;9904;52.246;20.898;2023-11-21T05:41:34;99671.13;;;-2.20;100.00
19520;BME280;9904;52.246;20.898;2023-11-21T05:44:00;99675.41;;;-2.17;100.00
19520;BME280;9904;52.246;20.898;2023-11-21T05:46:28;99677.97;;;-2.32;100.00
19520;BME280;9904;52.246;20.898;2023-11-21T05:48:55;99672.03;;;-2.37;100.00
19520;BME280;9904;52.246;20.898;2023-11-21T05:51:22;99682.00;;;-2.25;100.00
19520;BME280;9904;52.246;20.898;2023-11-21T05:53:51;99678.56;;;-2.27;100.00
19520;BME280;9904;52.246;20.898;2023-11-21T05:56:18;99676.34;;;-2.34;100.00
19520;BME280;9904;52.246;20.898;2023-11-21T05:58:44;99688.91;;;-2.38;100.00
19520;BME280;9904;52.246;20.898;2023-11-21T06:01:11;99684.63;;;-2.25;100.00
19520;BME280;9904;52.246;20.898;2023-11-21T06:03:39;99695.59;;;-2.15;100.00
19520;BME280;9904;52.246;20.898;2023-11-21T06:06:06;99696.09;;;-2.24;100.00
19520;BME280;9904;52.246;20.898;2023-11-21T06:08:33;99698.81;;;-2.26;100.00
19520;BME280;9904;52.246;20.898;2023-11-21T06:10:59;99696.19;;;-2.26;100.00
19520;BME280;9904;52.246;20.898;2023-11-21T06:13:27;99699.84;;;-2.28;100.00
19520;BME280;9904;52.246;20.898;2023-11-21T06:15:54;99707.81;;;-2.28;100.00
19520;BME280;9904;52.246;20.898;2023-11-21T06:18:47;99711.22;;;-2.26;100.00
19520;BME280;9904;52.246;20.898;2023-11-21T06:21:14;99720.81;;;-2.24;100.00
19520;BME280;9904;52.246;20.898;2023-11-21T06:23:46;99721.50;;;-2.20;100.00
19520;BME280;9904;52.246;20.898;2023-11-21T06:26:19;99726.47;;;-2.14;100.00
19520;BME280;9904;52.246;20.898;2023-11-21T06:28:46;99717.97;;;-2.20;100.00
19520;BME280;9904;52.246;20.898;2023-11-21T06:31:13;99709.16;;;-2.37;100.00
19520;BME280;9904;52.246;20.898;2023-11-21T06:33:40;99726.19;;;-2.25;100.00
19520;BME280;9904;52.246;20.898;2023-11-21T06:36:08;99725.84;;;-2.19;100.00
19520;BME280;9904;52.246;20.898;2023-11-21T06:38:35;99725.09;;;-2.21;100.00
19520;BME280;9904;52.246;20.898;2023-11-21T06:41:02;99717.19;;;-2.39;100.00
19520;BME280;9904;52.246;20.898;2023-11-21T06:43:29;99726.53;;;-2.31;100.00
19520;BME280;9904;52.246;20.898;2023-11-21T06:45:57;99735.28;;;-2.13;100.00
19520;BME280;9904;52.246;20.898;2023-11-21T06:48:48;99741.09;;;-2.07;100.00
19520;BME280;9904;52.246;20.898;2023-11-21T06:51:16;99744.84;;;-2.11;100.00
19520;BME280;9904;52.246;20.898;2023-11-21T06:53:42;99745.13;;;-2.15;100.00
19520;BME280;9904;52.246;20.898;2023-11-21T06:56:18;99746.06;;;-2.16;100.00
19520;BME280;9904;52.246;20.898;2023-11-21T06:58:46;99753.38;;;-2.21;100.00
19520;BME280;9904;52.246;20.898;2023-11-21T07:01:16;99758.63;;;-2.20;100.00
19520;BME280;9904;52.246;20.898;2023-11-21T07:03:43;99756.47;;;-2.29;100.00
19520;BME280;9904;52.246;20.898;2023-11-21T07:06:10;99765.91;;;-2.24;100.00
19520;BME280;9904;52.246;20.898;2023-11-21T07:08:37;99777.59;;;-2.28;100.00
19520;BME280;9904;52.246;20.898;2023-11-21T07:11:04;99768.09;;;-2.32;100.00
19520;BME280;9904;52.246;20.898;2023-11-21T07:13:32;99777.06;;;-2.34;100.00
19520;BME280;9904;52.246;20.898;2023-11-21T07:15:59;99768.34;;;-2.36;100.00
19520;BME280;9904;52.246;20.898;2023-11-21T07:18:26;99775.19;;;-2.32;100.00
19520;BME280;9904;52.246;20.898;2023-11-21T07:21:02;99775.25;;;-2.34;100.00
19520;BME280;9904;52.246;20.898;2023-11-21T07:23:29;99774.25;;;-2.31;100.00
19520;BME280;9904;52.246;20.898;2023-11-21T07:25:56;99783.13;;;-2.32;100.00
19520;BME280;9904;52.246;20.898;2023-11-21T07:28:24;99784.50;;;-2.25;100.00
19520;BME280;9904;52.246;20.898;2023-11-21T07:30:52;99778.47;;;-2.27;100.00
19520;BME280;9904;52.246;20.898;2023-11-21T07:33:19;99785.03;;;-2.34;100.00
19520;BME280;9904;52.246;20.898;2023-11-21T07:35:48;99783.56;;;-2.24;100.00
19520;BME280;9904;52.246;20.898;2023-11-21T07:38:14;99788.38;;;-2.31;100.00
19520;BME280;9904;52.246;20.898;2023-11-21T07:40:45;99782.72;;;-2.25;100.00
19520;BME280;9904;52.246;20.898;2023-11-21T07:43:12;99780.47;;;-2.32;100.00
19520;BME280;9904;52.246;20.898;2023-11-21T07:45:39;99780.84;;;-2.23;100.00
19520;BME280;9904;52.246;20.898;2023-11-21T07:48:06;99777.91;;;-2.34;100.00
19520;BME280;9904;52.246;20.898;2023-11-21T07:50:33;99784.25;;;-2.36;100.00
19520;BME280;9904;52.246;20.898;2023-11-21T07:53:00;99782.63;;;-2.39;100.00
19520;BME280;9904;52.246;20.898;2023-11-21T07:55:26;99791.44;;;-2.23;100.00
19520;BME280;9904;52.246;20.898;2023-11-21T07:57:55;99791.38;;;-2.21;100.00
19520;BME280;9904;52.246;20.898;2023-11-21T08:00:25;99785.16;;;-2.04;100.00
19520;BME280;9904;52.246;20.898;2023-11-21T08:02:56;99785.06;;;-2.18;100.00
19520;BME280;9904;52.246;20.898;2023-11-21T08:05:26;99799.34;;;-2.05;100.00
19520;BME280;9904;52.246;20.898;2023-11-21T08:08:02;99802.09;;;-2.07;100.00
19520;BME280;9904;52.246;20.898;2023-11-21T08:10:29;99795.63;;;-2.01;100.00
19520;BME280;9904;52.246;20.898;2023-11-21T08:12:56;99802.13;;;-1.91;100.00
19520;BME280;9904;52.246;20.898;2023-11-21T08:15:24;99810.16;;;-1.92;100.00
19520;BME280;9904;52.246;20.898;2023-11-21T08:17:50;99806.97;;;-1.99;100.00
19520;BME280;9904;52.246;20.898;2023-11-21T08:20:18;99798.97;;;-1.97;100.00
19520;BME280;9904;52.246;20.898;2023-11-21T08:22:45;99803.84;;;-1.89;100.00
19520;BME280;9904;52.246;20.898;2023-11-21T08:25:14;99806.13;;;-1.99;100.00
19520;BME280;9904;52.246;20.898;2023-11-21T08:27:44;99814.09;;;-1.99;100.00
19520;BME280;9904;52.246;20.898;2023-11-21T08:30:11;99820.00;;;-1.94;100.00
19520;BME280;9904;52.246;20.898;2023-11-21T08:32:39;99817.34;;;-1.94;100.00
19520;BME280;9904;52.246;20.898;2023-11-21T08:35:07;99822.31;;;-1.88;100.00
19520;BME280;9904;52.246;20.898;2023-11-21T08:37:34;99823.97;;;-1.85;100.00
19520;BME280;9904;52.246;20.898;2023-11-21T08:40:05;99825.16;;;-1.91;100.00
19520;BME280;9904;52.246;20.898;2023-11-21T08:42:35;99826.94;;;-1.92;100.00
19520;BME280;9904;52.246;20.898;2023-11-21T08:45:02;99833.44;;;-1.97;100.00
19520;BME280;9904;52.246;20.898;2023-11-21T08:47:29;99834.41;;;-1.82;100.00
19520;BME280;9904;52.246;20.898;2023-11-21T08:49:56;99836.66;;;-1.74;100.00
19520;BME280;9904;52.246;20.898;2023-11-21T08:52:25;99841.56;;;-1.84;100.00
19520;BME280;9904;52.246;20.898;2023-11-21T08:54:55;99839.69;;;-1.82;100.00
19520;BME280;9904;52.246;20.898;2023-11-21T08:57:25;99842.94;;;-1.77;100.00
19520;BME280;9904;52.246;20.898;2023-11-21T08:59:52;99842.84;;;-1.92;100.00
19520;BME280;9904;52.246;20.898;2023-11-21T09:02:27;99850.50;;;-1.69;100.00
19520;BME280;9904;52.246;20.898;2023-11-21T09:04:55;99848.19;;;-1.76;100.00
19520;BME280;9904;52.246;20.898;2023-11-21T09:07:22;99852.03;;;-1.81;100.00
19520;BME280;9904;52.246;20.898;2023-11-21T09:09:49;99863.50;;;-1.81;100.00
19520;BME280;9904;52.246;20.898;2023-11-21T09:12:17;99870.03;;;-1.70;100.00
19520;BME280;9904;52.246;20.898;2023-11-21T09:14:44;99863.56;;;-1.82;100.00
19520;BME280;9904;52.246;20.898;2023-11-21T09:17:11;99859.91;;;-1.80;100.00
19520;BME280;9904;52.246;20.898;2023-11-21T09:19:38;99867.09;;;-1.82;100.00
19520;BME280;9904;52.246;20.898;2023-11-21T09:22:06;99863.91;;;-1.88;100.00
19520;BME280;9904;52.246;20.898;2023-11-21T09:24:33;99860.00;;;-1.65;100.00
19520;BME280;9904;52.246;20.898;2023-11-21T09:27:02;99870.72;;;-1.67;100.00
19520;BME280;9904;52.246;20.898;2023-11-21T09:29:31;99869.44;;;-1.76;100.00
19520;BME280;9904;52.246;20.898;2023-11-21T09:31:58;99859.84;;;-1.78;100.00
19520;BME280;9904;52.246;20.898;2023-11-21T09:34:30;99869.09;;;-1.69;100.00
19520;BME280;9904;52.246;20.898;2023-11-21T09:36:58;99863.34;;;-1.78;100.00
19520;BME280;9904;52.246;20.898;2023-11-21T09:39:25;99870.88;;;-1.70;100.00
19520;BME280;9904;52.246;20.898;2023-11-21T09:41:57;99862.41;;;-1.77;100.00
19520;BME280;9904;52.246;20.898;2023-11-21T09:44:53;99868.78;;;-1.81;100.00
19520;BME280;9904;52.246;20.898;2023-11-21T09:47:25;99863.56;;;-1.82;100.00
19520;BME280;9904;52.246;20.898;2023-11-21T09:49:54;99860.84;;;-1.81;100.00
19520;BME280;9904;52.246;20.898;2023-11-21T09:52:26;99863.78;;;-1.69;100.00
19520;BME280;9904;52.246;20.898;2023-11-21T09:54:55;99869.00;;;-1.68;100.00
19520;BME280;9904;52.246;20.898;2023-11-21T09:57:25;99864.03;;;-1.58;100.00
19520;BME280;9904;52.246;20.898;2023-11-21T09:59:53;99869.63;;;-1.63;100.00
19520;BME280;9904;52.246;20.898;2023-11-21T10:02:27;99875.53;;;-1.57;100.00
19520;BME280;9904;52.246;20.898;2023-11-21T10:04:59;99875.97;;;-1.49;100.00
19520;BME280;9904;52.246;20.898;2023-11-21T10:07:31;99876.91;;;-1.50;100.00
19520;BME280;9904;52.246;20.898;2023-11-21T10:10:02;99880.09;;;-1.44;100.00
19520;BME280;9904;52.246;20.898;2023-11-21T10:12:28;99885.22;;;-1.56;100.00
19520;BME280;9904;52.246;20.898;2023-11-21T10:15:09;99886.16;;;-1.57;100.00
19520;BME280;9904;52.246;20.898;2023-11-21T10:17:43;99886.25;;;-1.59;100.00
19520;BME280;9904;52.246;20.898;2023-11-21T10:20:11;99887.41;;;-1.65;100.00
19520;BME280;9904;52.246;20.898;2023-11-21T10:22:40;99881.78;;;-1.58;100.00
19520;BME280;9904;52.246;20.898;2023-11-21T10:25:13;99881.66;;;-1.73;100.00
19520;BME280;9904;52.246;20.898;2023-11-21T10:27:48;99886.09;;;-1.73;100.00
19520;BME280;9904;52.246;20.898;2023-11-21T10:30:18;99887.56;;;-1.68;100.00
19520;BME280;9904;52.246;20.898;2023-11-21T10:32:44;99877.97;;;-1.70;100.00
19520;BME280;9904;52.246;20.898;2023-11-21T10:35:13;99885.25;;;-1.74;100.00
19520;BME280;9904;52.246;20.898;2023-11-21T10:37:42;99879.09;;;-1.74;100.00
19520;BME280;9904;52.246;20.898;2023-11-21T10:40:11;99884.44;;;-1.58;100.00
19520;BME280;9904;52.246;20.898;2023-11-21T10:42:39;99889.03;;;-1.78;100.00
19520;BME280;9904;52.246;20.898;2023-11-21T10:45:10;99893.91;;;-1.70;100.00
19520;BME280;9904;52.246;20.898;2023-11-21T10:47:44;99905.88;;;-1.79;100.00
19520;BME280;9904;52.246;20.898;2023-11-21T10:50:11;99907.19;;;-1.70;100.00
19520;BME280;9904;52.246;20.898;2023-11-21T10:52:41;99903.69;;;-1.71;100.00
19520;BME280;9904;52.246;20.898;2023-11-21T10:55:23;99899.41;;;-1.57;100.00
19520;BME280;9904;52.246;20.898;2023-11-21T10:57:53;99903.59;;;-1.53;100.00
19520;BME280;9904;52.246;20.898;2023-11-21T11:00:21;99908.06;;;-1.54;100.00
19520;BME280;9904;52.246;20.898;2023-11-21T11:02:54;99900.44;;;-1.44;100.00
19520;BME280;9904;52.246;20.898;2023-11-21T11:05:23;99910.19;;;-1.61;100.00
19520;BME280;9904;52.246;20.898;2023-11-21T11:08:04;99899.66;;;-1.62;100.00
19520;BME280;9904;52.246;20.898;2023-11-21T11:10:35;99897.50;;;-1.71;100.00
19520;BME280;9904;52.246;20.898;2023-11-21T11:13:03;99901.78;;;-1.69;100.00
19520;BME280;9904;52.246;20.898;2023-11-21T11:15:30;99903.50;;;-1.68;100.00
19520;BME280;9904;52.246;20.898;2023-11-21T11:17:57;99904.72;;;-1.57;100.00
19520;BME280;9904;52.246;20.898;2023-11-21T11:20:29;99906.16;;;-1.68;100.00
19520;BME280;9904;52.246;20.898;2023-11-21T11:26:12;99913.03;;;-1.64;100.00
19520;BME280;9904;52.246;20.898;2023-11-21T11:28:52;99915.47;;;-1.77;100.00
19520;BME280;9904;52.246;20.898;2023-11-21T11:31:59;99915.69;;;-1.64;100.00
19520;BME280;9904;52.246;20.898;2023-11-21T11:34:35;99916.31;;;-1.76;100.00
19520;BME280;9904;52.246;20.898;2023-11-21T11:37:06;99913.84;;;-1.79;100.00
19520;BME280;9904;52.246;20.898;2023-11-21T11:39:45;99913.41;;;-1.71;100.00
19520;BME280;9904;52.246;20.898;2023-11-21T11:42:17;99919.59;;;-1.71;100.00
19520;BME280;9904;52.246;20.898;2023-11-21T11:44:48;99919.28;;;-1.82;100.00
19520;BME280;9904;52.246;20.898;2023-11-21T11:47:28;99912.38;;;-1.85;100.00
19520;BME280;9904;52.246;20.898;2023-11-21T11:52:41;99919.91;;;-1.77;100.00
19520;BME280;9904;52.246;20.898;2023-11-21T11:55:19;99921.38;;;-1.71;100.00
19520;BME280;9904;52.246;20.898;2023-11-21T11:57:48;99916.16;;;-1.73;100.00
19520;BME280;9904;52.246;20.898;2023-11-21T12:02:56;99918.63;;;-1.70;100.00
19520;BME280;9904;52.246;20.898;2023-11-21T12:05:26;99919.41;;;-1.68;100.00
19520;BME280;9904;52.246;20.898;2023-11-21T12:08:00;99921.84;;;-1.81;100.00
19520;BME280;9904;52.246;20.898;2023-11-21T12:10:32;99922.81;;;-1.82;100.00
19520;BME280;9904;52.246;20.898;2023-11-21T12:13:07;99924.78;;;-1.85;100.00
19520;BME280;9904;52.246;20.898;2023-11-21T12:15:34;99926.16;;;-1.78;100.00
19520;BME280;9904;52.246;20.898;2023-11-21T12:18:07;99935.22;;;-1.82;100.00
19520;BME280;9904;52.246;20.898;2023-11-21T12:20:34;99941.63;;;-1.86;100.00
19520;BME280;9904;52.246;20.898;2023-11-21T12:23:06;99947.41;;;-1.78;100.00
19520;BME280;9904;52.246;20.898;2023-11-21T12:25:39;99943.63;;;-1.74;100.00
19520;BME280;9904;52.246;20.898;2023-11-21T12:28:09;99935.81;;;-1.77;100.00
19520;BME280;9904;52.246;20.898;2023-11-21T12:30:37;99945.13;;;-1.68;100.00
19520;BME280;9904;52.246;20.898;2023-11-21T12:33:05;99956.13;;;-1.76;100.00
19520;BME280;9904;52.246;20.898;2023-11-21T12:35:36;99948.94;;;-1.74;99.25
19520;BME280;9904;52.246;20.898;2023-11-21T12:38:04;99946.72;;;-1.82;99.59
19520;BME280;9904;52.246;20.898;2023-11-21T12:40:32;99948.38;;;-1.81;98.92
19520;BME280;9904;52.246;20.898;2023-11-21T12:43:00;99942.56;;;-1.87;99.39
19520;BME280;9904;52.246;20.898;2023-11-21T12:45:29;99953.41;;;-1.92;99.72
19520;BME280;9904;52.246;20.898;2023-11-21T12:48:04;99952.41;;;-1.89;99.56
19520;BME280;9904;52.246;20.898;2023-11-21T12:50:35;99959.88;;;-1.80;99.45
19520;BME280;9904;52.246;20.898;2023-11-21T12:53:12;99952.25;;;-1.86;98.97
19520;BME280;9904;52.246;20.898;2023-11-21T12:55:40;99959.28;;;-1.85;99.76
19520;BME280;9904;52.246;20.898;2023-11-21T12:58:09;99952.53;;;-1.93;99.70
19520;BME280;9904;52.246;20.898;2023-11-21T13:00:47;99966.25;;;-1.84;99.73
19520;BME280;9904;52.246;20.898;2023-11-21T13:03:16;99964.97;;;-1.93;100.00
19520;BME280;9904;52.246;20.898;2023-11-21T13:05:47;99967.47;;;-1.90;100.00
19520;BME280;9904;52.246;20.898;2023-11-21T13:08:23;99964.50;;;-2.01;99.98
19520;BME280;9904;52.246;20.898;2023-11-21T13:10:55;99975.28;;;-2.04;100.00
19520;BME280;9904;52.246;20.898;2023-11-21T13:13:25;99972.91;;;-1.93;100.00